Time;durP1;ratioP1;P1;durP2;ratioP2;P2;SDS_P1;SDS_P2;PMS_P1;PMS_P2;Temp;Humidity;BMP_temperature;BMP_pressure;BME280_temperature;BME280_humidity;BME280_pressure;Samples;Min_cycle;Max_cycle;Signal;HPM_P1;HPM_P2
2020/12/24 00:00:01;;;;;;;;;;;;;;;;;;5094284;28;20307;-63
2020/12/24 00:02:27;;;;;;;;;;;;;;;;;;5076561;28;19915;-63
2020/12/24 00:04:53;;;;;;;;;;;;;;;;;;5094602;28;20326;-63
2020/12/24 00:07:19;;;;;;;;;;;;;;;;;;5094209;28;19961;-64
2020/12/24 00:09:45;;;;;;;;;;;;;;;;;;5094422;28;20175;-64
2020/12/24 00:12:11;;;;;;;;;;;;;;;;;;5094039;28;19908;-63
2020/12/24 00:14:37;;;;;;;;;;;;;;;;;;5094579;28;19909;-63
2020/12/24 00:17:03;;;;;;;;;;;;;;;;;;5094426;28;19954;-63
2020/12/24 00:19:29;;;;;;;;;;;;;;;;;;5093783;28;19955;-63
2020/12/24 00:21:55;;;;;;;;;;;;;;;;;;5075868;28;19912;-63
2020/12/24 00:24:21;;;;;;;;;;;;;;;;;;5094053;28;20221;-63
2020/12/24 00:26:47;;;;;;;;;;;;;;;;;;5093568;28;19908;-63
2020/12/24 00:29:13;;;;;;;;;;;;;;;;;;5093884;28;20372;-63
2020/12/24 00:31:39;;;;;;;;;;;;;;;;;;5075804;28;19952;-63
2020/12/24 00:34:05;;;;;;;;;;;;;;;;;;5093673;28;19929;-63
2020/12/24 00:36:31;;;;;;;;;;;;;;;;;;5075902;28;19914;-63
2020/12/24 00:38:57;;;;;;;;;;;;;;;;;;5093863;28;20011;-63
2020/12/24 00:41:23;;;;;;;;;;;;;;;;;;5093401;28;19908;-63
2020/12/24 00:43:49;;;;;;;;;;;;;;;;;;5093740;28;20000;-63
2020/12/24 00:46:15;;;;;;;;;;;;;;;;;;5075577;28;19995;-63
2020/12/24 00:48:41;;;;;;;;;;;;;;;;;;5093051;28;19920;-63
2020/12/24 00:51:07;;;;;;;;;;;;;;;;;;5093645;28;19912;-62
2020/12/24 00:53:33;;;;;;;;;;;;;;;;;;5093714;28;19943;-62
2020/12/24 00:55:59;;;;;;;;;;;;;;;;;;5093433;28;19908;-62
2020/12/24 00:58:25;;;;;;;;;;;;;;;;;;5093464;28;19912;-62
2020/12/24 01:00:51;;;;;;;;;;;;;;;;;;5093532;28;20376;-62
2020/12/24 01:03:17;;;;;;;;;;;;;;;;;;5093081;28;19909;-62
2020/12/24 01:05:43;;;;;;;;;;;;;;;;;;5093482;28;20437;-62
2020/12/24 01:08:09;;;;;;;;;;;;;;;;;;5093348;28;19915;-62
2020/12/24 01:10:35;;;;;;;;;;;;;;;;;;5074689;28;19917;-62
2020/12/24 01:13:01;;;;;;;;;;;;;;;;;;5093469;28;20264;-62
2020/12/24 01:15:27;;;;;;;;;;;;;;;;;;5093126;28;19915;-63
2020/12/24 01:17:53;;;;;;;;;;;;;;;;;;5093326;28;20395;-62
2020/12/24 01:20:19;;;;;;;;;;;;;;;;;;5074646;28;19940;-62
2020/12/24 01:22:45;;;;;;;;;;;;;;;;;;5092660;28;19908;-63
2020/12/24 01:25:11;;;;;;;;;;;;;;;;;;5093271;28;20318;-62
2020/12/24 01:27:36;;;;;;;;;;;;;;;;;;5093160;28;19908;-62
2020/12/24 01:30:02;;;;;;;;;;;;;;;;;;5074514;28;19965;-62
2020/12/24 01:32:28;;;;;;;;;;;;;;;;;;5093087;28;19947;-62
2020/12/24 01:34:54;;;;;;;;;;;;;;;;;;5093228;28;20286;-62
2020/12/24 01:37:20;;;;;;;;;;;;;;;;;;5074575;28;19958;-63
2020/12/24 01:39:46;;;;;;;;;;;;;;;;;;5093039;28;19927;-63
2020/12/24 01:42:14;;;;;;;;;;;;;;;;;;5092865;28;20333;-62
2020/12/24 01:44:40;;;;;;;;;;;;;;;;;;5092571;28;19912;-62
2020/12/24 01:47:06;;;;;;;;;;;;;;;;;;5092904;28;20038;-63
2020/12/24 01:49:32;;;;;;;;;;;;;;;;;;5092674;28;20380;-63
2020/12/24 01:51:58;;;;;;;;;;;;;;;;;;5092486;28;19953;-62
2020/12/24 01:54:24;;;;;;;;;;;;;;;;;;5093005;28;19987;-62
2020/12/24 01:56:50;;;;;;;;;;;;;;;;;;5092925;28;19912;-62
2020/12/24 01:59:16;;;;;;;;;;;;;;;;;;5092395;28;19908;-62
2020/12/24 02:01:42;;;;;;;;;;;;;;;;;;5074551;28;19956;-62
2020/12/24 02:04:08;;;;;;;;;;;;;;;;;;5092711;28;19940;-62
2020/12/24 02:06:34;;;;;;;;;;;;;;;;;;5092255;28;20002;-62
2020/12/24 02:09:00;;;;;;;;;;;;;;;;;;5074423;28;20338;-62
2020/12/24 02:11:26;;;;;;;;;;;;;;;;;;5074592;28;19908;-62
2020/12/24 02:13:52;;;;;;;;;;;;;;;;;;5074255;28;20363;-62
2020/12/24 02:16:18;;;;;;;;;;;;;;;;;;5092740;28;19912;-64
2020/12/24 02:18:43;;;;;;;;;;;;;;;;;;5074054;28;19908;-62
2020/12/24 02:21:09;;;;;;;;;;;;;;;;;;5074349;28;20348;-63
2020/12/24 02:23:35;;;;;;;;;;;;;;;;;;5092546;28;19954;-62
2020/12/24 02:26:01;;;;;;;;;;;;;;;;;;5092093;28;19909;-62
2020/12/24 02:28:27;;;;;;;;;;;;;;;;;;5092480;28;20007;-62
2020/12/24 02:30:53;;;;;;;;;;;;;;;;;;5074593;28;19908;-62
2020/12/24 02:33:19;;;;;;;;;;;;;;;;;;5096093;28;20357;-62
2020/12/24 02:35:45;;;;;;;;;;;;;;;;;;5096634;28;20041;-62
2020/12/24 02:38:11;;;;;;;;;;;;;;;;;;5096716;28;19915;-63
2020/12/24 02:40:37;;;;;;;;;;;;;;;;;;5095899;28;20261;-63
2020/12/24 02:43:03;;;;;;;;;;;;;;;;;;5077957;28;19958;-62
2020/12/24 02:45:29;;;;;;;;;;;;;;;;;;5096120;28;19908;-62
2020/12/24 02:47:55;;;;;;;;;;;;;;;;;;5095561;28;19991;-62
2020/12/24 02:50:21;;;;;;;;;;;;;;;;;;5078119;28;20322;-63
2020/12/24 02:52:47;;;;;;;;;;;;;;;;;;5096143;28;19908;-62
2020/12/24 02:55:13;;;;;;;;;;;;;;;;;;5095841;28;19994;-62
2020/12/24 02:57:39;;;;;;;;;;;;;;;;;;5095926;28;19961;-63
2020/12/24 03:00:05;;;;;;;;;;;;;;;;;;5095997;28;19908;-61
2020/12/24 03:02:31;;;;;;;;;;;;;;;;;;5095542;28;20383;-62
2020/12/24 03:04:57;;;;;;;;;;;;;;;;;;5095816;28;19998;-62
2020/12/24 03:07:23;;;;;;;;;;;;;;;;;;5095800;28;19912;-62
2020/12/24 03:09:49;;;;;;;;;;;;;;;;;;5095262;28;19916;-62
2020/12/24 03:12:15;;;;;;;;;;;;;;;;;;5095731;28;20276;-62
2020/12/24 03:14:41;;;;;;;;;;;;;;;;;;5095858;28;19962;-62
2020/12/24 03:17:07;;;;;;;;;;;;;;;;;;5095368;28;20010;-62
2020/12/24 03:19:33;;;;;;;;;;;;;;;;;;5095617;28;19915;-62
2020/12/24 03:21:59;;;;;;;;;;;;;;;;;;5095127;28;19912;-62
2020/12/24 03:24:25;;;;;;;;;;;;;;;;;;5095442;28;20275;-62
2020/12/24 03:26:51;;;;;;;;;;;;;;;;;;5095372;28;19977;-62
2020/12/24 03:29:17;;;;;;;;;;;;;;;;;;5094868;28;19920;-62
2020/12/24 03:31:43;;;;;;;;;;;;;;;;;;5095247;28;19911;-62
2020/12/24 03:34:09;;;;;;;;;;;;;;;;;;5095485;28;19908;-62
2020/12/24 03:36:35;;;;;;;;;;;;;;;;;;5094792;28;19948;-62
2020/12/24 03:39:00;;;;;;;;;;;;;;;;;;5095175;28;19943;-62
2020/12/24 03:41:26;;;;;;;;;;;;;;;;;;5095076;28;19908;-62
2020/12/24 03:43:52;;;;;;;;;;;;;;;;;;5094309;28;19916;-62
2020/12/24 03:46:18;;;;;;;;;;;;;;;;;;5095044;28;19908;-62
2020/12/24 03:48:44;;;;;;;;;;;;;;;;;;5094744;28;19927;-63
2020/12/24 03:51:10;;;;;;;;;;;;;;;;;;5094568;28;19908;-62
2020/12/24 03:53:36;;;;;;;;;;;;;;;;;;5095089;28;19909;-62
2020/12/24 03:56:02;;;;;;;;;;;;;;;;;;5094874;28;20344;-62
2020/12/24 03:58:28;;;;;;;;;;;;;;;;;;5094479;28;19915;-63
2020/12/24 04:00:54;;;;;;;;;;;;;;;;;;5094749;28;19908;-62
2020/12/24 04:03:20;;;;;;;;;;;;;;;;;;5094774;28;20003;-63
2020/12/24 04:05:46;;;;;;;;;;;;;;;;;;5094184;28;19908;-62
2020/12/24 04:08:12;;;;;;;;;;;;;;;;;;5094642;28;20433;-63
2020/12/24 04:10:38;;;;;;;;;;;;;;;;;;5094472;28;19916;-62
2020/12/24 04:13:04;;;;;;;;;;;;;;;;;;5094200;28;19908;-63
2020/12/24 04:15:30;;;;;;;;;;;;;;;;;;5094614;28;19999;-63
2020/12/24 04:17:56;;;;;;;;;;;;;;;;;;5094438;28;19912;-63
2020/12/24 04:20:22;;;;;;;;;;;;;;;;;;5093930;28;20439;-62
2020/12/24 04:22:48;;;;;;;;;;;;;;;;;;5094337;28;19908;-63
2020/12/24 04:25:14;;;;;;;;;;;;;;;;;;5093871;28;19965;-62
2020/12/24 04:27:40;;;;;;;;;;;;;;;;;;5094206;28;19912;-62
2020/12/24 04:30:06;;;;;;;;;;;;;;;;;;5094055;28;20309;-63
2020/12/24 04:32:32;;;;;;;;;;;;;;;;;;5075569;28;19912;-62
2020/12/24 04:34:58;;;;;;;;;;;;;;;;;;5094261;28;19908;-62
2020/12/24 04:37:24;;;;;;;;;;;;;;;;;;5094149;28;19939;-63
2020/12/24 04:39:50;;;;;;;;;;;;;;;;;;5093549;28;19919;-63
2020/12/24 04:42:16;;;;;;;;;;;;;;;;;;5093974;28;20267;-63
2020/12/24 04:44:42;;;;;;;;;;;;;;;;;;5093862;28;19987;-63
2020/12/24 04:47:08;;;;;;;;;;;;;;;;;;5093698;28;19989;-63
2020/12/24 04:49:34;;;;;;;;;;;;;;;;;;5093583;28;19927;-62
2020/12/24 04:52:00;;;;;;;;;;;;;;;;;;5093767;28;20426;-62
2020/12/24 04:54:26;;;;;;;;;;;;;;;;;;5092763;28;19943;-63
2020/12/24 04:56:52;;;;;;;;;;;;;;;;;;5093760;28;20330;-62
2020/12/24 04:59:18;;;;;;;;;;;;;;;;;;5075374;28;19908;-65
2020/12/24 05:01:44;;;;;;;;;;;;;;;;;;5093381;28;19931;-64
2020/12/24 05:04:10;;;;;;;;;;;;;;;;;;5075421;28;20295;-63
2020/12/24 05:06:36;;;;;;;;;;;;;;;;;;5093571;28;19908;-64
2020/12/24 05:09:02;;;;;;;;;;;;;;;;;;5092946;28;19912;-64
2020/12/24 05:11:28;;;;;;;;;;;;;;;;;;5093455;28;19931;-64
2020/12/24 05:13:54;;;;;;;;;;;;;;;;;;5075242;28;20287;-64
2020/12/24 05:16:20;;;;;;;;;;;;;;;;;;5093138;28;19918;-64
2020/12/24 05:18:46;;;;;;;;;;;;;;;;;;5093191;28;19908;-64
2020/12/24 05:21:12;;;;;;;;;;;;;;;;;;5093278;28;19954;-63
2020/12/24 05:23:38;;;;;;;;;;;;;;;;;;5092875;28;20292;-63
2020/12/24 05:26:04;;;;;;;;;;;;;;;;;;5093296;28;20379;-63
2020/12/24 05:28:30;;;;;;;;;;;;;;;;;;5092744;28;19912;-63
2020/12/24 05:30:56;;;;;;;;;;;;;;;;;;5093063;28;20355;-64
2020/12/24 05:33:22;;;;;;;;;;;;;;;;;;5093141;28;20004;-63
2020/12/24 05:35:48;;;;;;;;;;;;;;;;;;5093086;28;19931;-62
2020/12/24 05:38:14;;;;;;;;;;;;;;;;;;5093407;28;19908;-63
2020/12/24 05:40:40;;;;;;;;;;;;;;;;;;5092993;28;19912;-62
2020/12/24 05:43:06;;;;;;;;;;;;;;;;;;5092826;28;19947;-62
2020/12/24 05:45:32;;;;;;;;;;;;;;;;;;5074715;28;19909;-62
2020/12/24 05:47:58;;;;;;;;;;;;;;;;;;5092522;28;19915;-62
2020/12/24 05:50:24;;;;;;;;;;;;;;;;;;5092390;28;19927;-62
2020/12/24 05:52:50;;;;;;;;;;;;;;;;;;5092954;28;19965;-62
2020/12/24 05:55:16;;;;;;;;;;;;;;;;;;5092818;28;20611;-62
2020/12/24 05:57:42;;;;;;;;;;;;;;;;;;5092373;28;20002;-62
2020/12/24 06:00:08;;;;;;;;;;;;;;;;;;5092570;28;19915;-62
2020/12/24 06:02:34;;;;;;;;;;;;;;;;;;5092717;28;19908;-63
2020/12/24 06:05:00;;;;;;;;;;;;;;;;;;5092727;28;19912;-63
2020/12/24 06:07:26;;;;;;;;;;;;;;;;;;5096885;28;20372;-62
2020/12/24 06:09:52;;;;;;;;;;;;;;;;;;5096769;28;19916;-63
2020/12/24 06:12:18;;;;;;;;;;;;;;;;;;5078554;28;19914;-63
2020/12/24 06:14:47;;;;;;;;;;;;;;;;;;5096823;28;19915;-63
2020/12/24 06:17:13;;;;;;;;;;;;;;;;;;5096819;28;20094;-63
2020/12/24 06:19:39;;;;;;;;;;;;;;;;;;5078054;28;19998;-64
2020/12/24 06:22:05;;;;;;;;;;;;;;;;;;5096548;28;20419;-60
2020/12/24 06:24:31;;;;;;;;;;;;;;;;;;5096607;28;19943;-61
2020/12/24 06:26:57;;;;;;;;;;;;;;;;;;5094029;28;19913;-60
2020/12/24 06:29:23;;;;;;;;;;;;;;;;;;5094791;28;19969;-60
2020/12/24 06:31:49;;;;;;;;;;;;;;;;;;5095936;28;19908;-61
2020/12/24 06:34:15;;;;;;;;;;;;;;;;;;5096296;28;19908;-62
2020/12/24 06:36:41;;;;;;;;;;;;;;;;;;5094888;28;20429;-61
2020/12/24 06:39:07;;;;;;;;;;;;;;;;;;5095056;28;20242;-62
2020/12/24 06:41:33;;;;;;;;;;;;;;;;;;5076648;28;20339;-62
2020/12/24 06:43:59;;;;;;;;;;;;;;;;;;5095949;28;19919;-61
2020/12/24 06:46:25;;;;;;;;;;;;;;;;;;5095554;28;20421;-61
2020/12/24 06:48:51;;;;;;;;;;;;;;;;;;5081919;28;19926;-62
2020/12/24 06:51:17;;;;;;;;;;;;;;;;;;5095913;28;19920;-61
2020/12/24 06:53:43;;;;;;;;;;;;;;;;;;5095596;28;19962;-60
2020/12/24 06:56:09;;;;;;;;;;;;;;;;;;5095820;28;19915;-62
2020/12/24 06:58:35;;;;;;;;;;;;;;;;;;5095680;28;19991;-65
2020/12/24 07:01:01;;;;;;;;;;;;;;;;;;5095291;28;19962;-63
2020/12/24 07:03:27;;;;;;;;;;;;;;;;;;5095682;28;20334;-63
2020/12/24 07:05:53;;;;;;;;;;;;;;;;;;5095635;28;19919;-64
2020/12/24 07:08:19;;;;;;;;;;;;;;;;;;5095249;28;19909;-64
2020/12/24 07:10:45;;;;;;;;;;;;;;;;;;5095442;28;19916;-64
2020/12/24 07:13:11;;;;;;;;;;;;;;;;;;5095685;28;19909;-64
2020/12/24 07:15:37;;;;;;;;;;;;;;;;;;5093663;28;19931;-64
2020/12/24 07:18:03;;;;;;;;;;;;;;;;;;5093386;28;20376;-65
2020/12/24 07:20:29;;;;;;;;;;;;;;;;;;5095203;28;20003;-64
2020/12/24 07:22:55;;;;;;;;;;;;;;;;;;5094809;28;19915;-64
2020/12/24 07:25:21;;;;;;;;;;;;;;;;;;5094817;28;19915;-63
2020/12/24 07:27:47;;;;;;;;;;;;;;;;;;5093937;28;19908;-64
2020/12/24 07:30:13;;;;;;;;;;;;;;;;;;5093232;28;20300;-64
2020/12/24 07:32:39;;;;;;;;;;;;;;;;;;5095196;28;19914;-64
2020/12/24 07:35:05;;;;;;;;;;;;;;;;;;5093638;28;20280;-65
2020/12/24 07:37:31;;;;;;;;;;;;;;;;;;5094997;28;19908;-63
2020/12/24 07:39:57;;;;;;;;;;;;;;;;;;5094835;28;19954;-63
2020/12/24 07:42:23;;;;;;;;;;;;;;;;;;5094501;28;19919;-63
2020/12/24 07:44:49;;;;;;;;;;;;;;;;;;5094868;28;19908;-63
2020/12/24 07:47:16;;;;;;;;;;;;;;;;;;5094764;28;20052;-64
2020/12/24 07:49:42;;;;;;;;;;;;;;;;;;5092804;28;19922;-63
2020/12/24 07:52:10;;;;;;;;;;;;;;;;;;5094801;28;19922;-64
2020/12/24 07:54:36;;;;;;;;;;;;;;;;;;5094895;28;19908;-64
2020/12/24 07:57:02;;;;;;;;;;;;;;;;;;5094061;28;20032;-63
2020/12/24 07:59:28;;;;;;;;;;;;;;;;;;5094322;28;19950;-63
2020/12/24 08:01:54;;;;;;;;;;;;;;;;;;5093746;28;19953;-63
2020/12/24 08:04:20;;;;;;;;;;;;;;;;;;5094017;28;20333;-64
2020/12/24 08:06:46;;;;;;;;;;;;;;;;;;5091491;28;19908;-64
2020/12/24 08:09:12;;;;;;;;;;;;;;;;;;5091278;28;19920;-65
2020/12/24 08:11:38;;;;;;;;;;;;;;;;;;5093757;28;19944;-65
2020/12/24 08:14:04;;;;;;;;;;;;;;;;;;5094224;28;19991;-64
2020/12/24 08:16:29;;;;;;;;;;;;;;;;;;5093852;28;20019;-64
2020/12/24 08:18:55;;;;;;;;;;;;;;;;;;5090062;28;20360;-63
2020/12/24 08:21:21;;;;;;;;;;;;;;;;;;5091531;28;19942;-62
2020/12/24 08:23:47;;;;;;;;;;;;;;;;;;5091431;28;20315;-64
2020/12/24 08:26:13;;;;;;;;;;;;;;;;;;5091153;28;20003;-64
2020/12/24 08:28:39;;;;;;;;;;;;;;;;;;5095932;28;19916;-63
2020/12/24 08:31:05;;;;;;;;;;;;;;;;;;5103729;28;19946;-64
2020/12/24 08:33:32;;;;;;;;;;;;;;;;;;5093620;28;20376;-62
2020/12/24 08:35:57;;;;;;;;;;;;;;;;;;5093335;28;19908;-62
2020/12/24 08:38:23;;;;;;;;;;;;;;;;;;5093287;28;19908;-61
2020/12/24 08:40:49;;;;;;;;;;;;;;;;;;5094971;28;19977;-62
2020/12/24 08:43:15;;;;;;;;;;;;;;;;;;5090463;28;19954;-63
2020/12/24 08:45:42;;;;;;;;;;;;;;;;;;5112980;28;19912;-62
2020/12/24 08:48:07;;;;;;;;;;;;;;;;;;5113256;28;19915;-63
2020/12/24 08:50:33;;;;;;;;;;;;;;;;;;5113472;28;19915;-63
2020/12/24 08:53:00;;;;;;;;;;;;;;;;;;5113259;28;19912;-62
2020/12/24 08:55:27;;;;;;;;;;;;;;;;;;5113654;28;19957;-63
2020/12/24 08:57:53;;;;;;;;;;;;;;;;;;5113452;28;20003;-63
2020/12/24 09:00:19;;;;;;;;;;;;;;;;;;5112823;28;19908;-63
2020/12/24 09:02:45;;;;;;;;;;;;;;;;;;5113361;28;20023;-63
2020/12/24 09:05:11;;;;;;;;;;;;;;;;;;5113113;28;20328;-63
2020/12/24 09:07:38;;;;;;;;;;;;;;;;;;5094452;28;19994;-63
2020/12/24 09:10:04;;;;;;;;;;;;;;;;;;5112137;28;19923;-63
2020/12/24 09:12:30;;;;;;;;;;;;;;;;;;5111793;28;19911;-62
2020/12/24 09:14:55;;;;;;;;;;;;;;;;;;5112645;28;19915;-63
2020/12/24 09:17:21;;;;;;;;;;;;;;;;;;5113039;28;20283;-63
2020/12/24 09:19:47;;;;;;;;;;;;;;;;;;5094632;28;19959;-62
2020/12/24 09:22:13;;;;;;;;;;;;;;;;;;5112816;28;19954;-62
2020/12/24 09:24:39;;;;;;;;;;;;;;;;;;5094401;28;19912;-63
2020/12/24 09:27:05;;;;;;;;;;;;;;;;;;5112731;28;19911;-64
2020/12/24 09:29:31;;;;;;;;;;;;;;;;;;5112470;28;19920;-63
2020/12/24 09:31:57;;;;;;;;;;;;;;;;;;5112946;28;19998;-64
2020/12/24 09:34:23;;;;;;;;;;;;;;;;;;5112671;28;19994;-63
2020/12/24 09:36:49;;;;;;;;;;;;;;;;;;5112331;28;19916;-63
2020/12/24 09:39:15;;;;;;;;;;;;;;;;;;5094251;28;19912;-62
2020/12/24 09:41:41;;;;;;;;;;;;;;;;;;5112247;28;20268;-62
2020/12/24 09:44:07;;;;;;;;;;;;;;;;;;5112576;28;19938;-63
2020/12/24 09:46:33;;;;;;;;;;;;;;;;;;5094256;28;19911;-63
2020/12/24 09:48:59;;;;;;;;;;;;;;;;;;5112207;28;20435;-63
2020/12/24 09:51:27;;;;;;;;;;;;;;;;;;5094391;28;21314;-63
2020/12/24 09:53:53;;;;;;;;;;;;;;;;;;5094347;28;19960;-64
2020/12/24 09:56:19;;;;;;;;;;;;;;;;;;5112255;28;19904;-65
2020/12/24 09:58:45;;;;;;;;;;;;;;;;;;5111419;28;19990;-63
2020/12/24 10:01:11;;;;;;;;;;;;;;;;;;5110903;28;19904;-64
2020/12/24 10:03:37;;;;;;;;;;;;;;;;;;5110577;28;19952;-64
2020/12/24 10:06:03;;;;;;;;;;;;;;;;;;5110715;28;19904;-62
2020/12/24 10:08:29;;;;;;;;;;;;;;;;;;5110792;28;19908;-62
2020/12/24 10:10:55;;;;;;;;;;;;;;;;;;5093867;28;19939;-62
2020/12/24 10:13:21;;;;;;;;;;;;;;;;;;5112148;28;19908;-62
2020/12/24 10:15:47;;;;;;;;;;;;;;;;;;5111791;28;20284;-63
2020/12/24 10:18:13;;;;;;;;;;;;;;;;;;5112073;28;19908;-62
2020/12/24 10:20:39;;;;;;;;;;;;;;;;;;5111323;28;20018;-61
2020/12/24 10:23:05;;;;;;;;;;;;;;;;;;5112176;28;19912;-61
2020/12/24 10:25:31;;;;;;;;;;;;;;;;;;5093709;28;20275;-65
2020/12/24 10:27:57;;;;;;;;;;;;;;;;;;5112431;28;19987;-62
2020/12/24 10:30:23;;;;;;;;;;;;;;;;;;5112496;28;20014;-62
2020/12/24 10:32:49;;;;;;;;;;;;;;;;;;5112234;28;20025;-63
2020/12/24 10:35:15;;;;;;;;;;;;;;;;;;5112203;28;19908;-63
2020/12/24 10:37:41;;;;;;;;;;;;;;;;;;5093864;28;19914;-62
2020/12/24 10:40:07;;;;;;;;;;;;;;;;;;5111826;28;19961;-62
2020/12/24 10:42:40;;;;;;;;;;;;;;;;;;5094022;28;19915;-64
2020/12/24 10:45:06;;;;;;;;;;;;;;;;;;5121195;28;20371;-63
2020/12/24 10:47:32;;;;;;;;;;;;;;;;;;5112394;28;20002;-61
2020/12/24 10:49:58;;;;;;;;;;;;;;;;;;5104799;28;19930;-63
2020/12/24 10:52:24;;;;;;;;;;;;;;;;;;5113047;28;20384;-62
2020/12/24 10:54:50;;;;;;;;;;;;;;;;;;5100808;28;20315;-62
2020/12/24 10:57:16;;;;;;;;;;;;;;;;;;5109879;28;19912;-64
2020/12/24 10:59:42;;;;;;;;;;;;;;;;;;5098762;28;19942;-64
2020/12/24 11:02:08;;;;;;;;;;;;;;;;;;5106485;28;19912;-63
2020/12/24 11:04:34;;;;;;;;;;;;;;;;;;5097328;28;20375;-62
2020/12/24 11:07:00;;;;;;;;;;;;;;;;;;5096945;28;19919;-61
2020/12/24 11:09:26;;;;;;;;;;;;;;;;;;5094591;28;20045;-61
2020/12/24 11:11:52;;;;;;;;;;;;;;;;;;5076848;28;20025;-61
2020/12/24 11:14:18;;;;;;;;;;;;;;;;;;5076358;28;19908;-62
2020/12/24 11:16:44;;;;;;;;;;;;;;;;;;5095030;28;19954;-61
2020/12/24 11:19:10;;;;;;;;;;;;;;;;;;5106928;28;19908;-60
2020/12/24 11:21:36;;;;;;;;;;;;;;;;;;5078517;28;20007;-60
2020/12/24 11:24:06;;;;;;;;;;;;;;;;;;5096888;28;19907;-60
2020/12/24 11:26:32;;;;;;;;;;;;;;;;;;5115436;28;19908;-62
2020/12/24 11:28:58;;;;;;;;;;;;;;;;;;5115106;28;19999;-60
2020/12/24 11:31:24;;;;;;;;;;;;;;;;;;5115128;28;20002;-60
2020/12/24 11:33:50;;;;;;;;;;;;;;;;;;5114853;28;19920;-62
2020/12/24 11:36:16;;;;;;;;;;;;;;;;;;5107762;28;19908;-60
2020/12/24 11:38:42;;;;;;;;;;;;;;;;;;5094768;28;20383;-61
2020/12/24 11:41:08;;;;;;;;;;;;;;;;;;5076496;28;19930;-60
2020/12/24 11:43:34;;;;;;;;;;;;;;;;;;5094231;28;19909;-60
2020/12/24 11:46:00;;;;;;;;;;;;;;;;;;5093186;28;20365;-62
2020/12/24 11:48:26;;;;;;;;;;;;;;;;;;5097055;28;19926;-60
2020/12/24 11:50:52;;;;;;;;;;;;;;;;;;5104779;27;20672;-61
2020/12/24 11:53:18;;;;;;;;;;;;;;;;;;5116526;27;19907;-60
2020/12/24 11:55:44;;;;;;;;;;;;;;;;;;5121610;27;19911;-61
2020/12/24 11:58:10;;;;;;;;;;;;;;;;;;5119224;27;19920;-61
2020/12/24 12:00:36;;;;;;;;;;;;;;;;;;5114612;28;19988;-61
2020/12/24 12:03:02;;;;;;;;;;;;;;;;;;5114147;28;20367;-61
2020/12/24 12:05:28;;;;;;;;;;;;;;;;;;5096141;28;19962;-63
2020/12/24 12:07:54;;;;;;;;;;;;;;;;;;5114797;28;19908;-61
2020/12/24 12:10:20;;;;;;;;;;;;;;;;;;5110708;28;20285;-61
2020/12/24 12:12:46;;;;;;;;;;;;;;;;;;5115403;27;19912;-62
2020/12/24 12:15:12;;;;;;;;;;;;;;;;;;5117253;27;19918;-63
2020/12/24 12:17:38;;;;;;;;;;;;;;;;;;5121418;27;19923;-62
2020/12/24 12:20:04;;;;;;;;;;;;;;;;;;5112107;28;19908;-64
2020/12/24 12:22:30;;;;;;;;;;;;;;;;;;5112351;28;19912;-62
2020/12/24 12:24:56;;;;;;;;;;;;;;;;;;5111720;28;20365;-62
2020/12/24 12:27:22;;;;;;;;;;;;;;;;;;5112340;28;20006;-61
2020/12/24 12:29:48;;;;;;;;;;;;;;;;;;5113592;28;19916;-62
2020/12/24 12:32:14;;;;;;;;;;;;;;;;;;5113119;28;20279;-61
2020/12/24 12:34:40;;;;;;;;;;;;;;;;;;5113691;28;20008;-62
2020/12/24 12:37:06;;;;;;;;;;;;;;;;;;5095706;28;20286;-63
2020/12/24 12:39:32;;;;;;;;;;;;;;;;;;5112511;28;20011;-62
2020/12/24 12:41:58;;;;;;;;;;;;;;;;;;5113263;28;19995;-61
2020/12/24 12:44:24;;;;;;;;;;;;;;;;;;5111965;28;19919;-62
2020/12/24 12:46:50;;;;;;;;;;;;;;;;;;5116781;27;19956;-62
2020/12/24 12:49:16;;;;;;;;;;;;;;;;;;5129369;27;20008;-63
2020/12/24 12:51:42;;;;;;;;;;;;;;;;;;5134042;27;19996;-62
2020/12/24 12:54:08;;;;;;;;;;;;;;;;;;5114620;27;19962;-63
2020/12/24 12:56:36;;;;;;;;;;;;;;;;;;5125886;27;19914;-63
2020/12/24 12:59:02;;;;;;;;;;;;;;;;;;5111330;28;19907;-62
2020/12/24 13:01:28;;;;;;;;;;;;;;;;;;5110978;28;19907;-61
2020/12/24 13:03:54;;;;;;;;;;;;;;;;;;5111642;28;19908;-63
2020/12/24 13:06:20;;;;;;;;;;;;;;;;;;5116882;27;19911;-62
2020/12/24 13:08:46;;;;;;;;;;;;;;;;;;5132204;27;19915;-63
2020/12/24 13:11:12;;;;;;;;;;;;;;;;;;5113602;27;19930;-62
2020/12/24 13:13:38;;;;;;;;;;;;;;;;;;5131387;27;19938;-64
2020/12/24 13:16:04;;;;;;;;;;;;;;;;;;5109087;27;19967;-62
2020/12/24 13:18:30;;;;;;;;;;;;;;;;;;5130099;27;20002;-63
2020/12/24 13:20:57;;;;;;;;;;;;;;;;;;5131179;27;20006;-62
2020/12/24 13:23:23;;;;;;;;;;;;;;;;;;5131713;27;19956;-62
2020/12/24 13:25:49;;;;;;;;;;;;;;;;;;5114501;27;19908;-61
2020/12/24 13:28:15;;;;;;;;;;;;;;;;;;5132341;27;19914;-62
2020/12/24 13:30:41;;;;;;;;;;;;;;;;;;5132851;27;19919;-62
2020/12/24 13:33:07;;;;;;;;;;;;;;;;;;5133562;27;20299;-62
2020/12/24 13:35:33;;;;;;;;;;;;;;;;;;5132926;27;19947;-62
2020/12/24 13:37:59;;;;;;;;;;;;;;;;;;5114359;27;20055;-62
2020/12/24 13:40:25;;;;;;;;;;;;;;;;;;5133048;27;19914;-61
2020/12/24 13:42:51;;;;;;;;;;;;;;;;;;5132971;27;19907;-60
2020/12/24 13:45:17;;;;;;;;;;;;;;;;;;5132910;27;20325;-61
2020/12/24 13:47:43;;;;;;;;;;;;;;;;;;5133718;27;19946;-63
2020/12/24 13:50:09;;;;;;;;;;;;;;;;;;5132583;27;20016;-63
2020/12/24 13:52:35;;;;;;;;;;;;;;;;;;5133523;27;19914;-63
2020/12/24 13:55:01;;;;;;;;;;;;;;;;;;5133328;27;20262;-64
2020/12/24 13:57:29;;;;;;;;;;;;;;;;;;5133603;28;19907;-63
2020/12/24 13:59:57;;;;;;;;;;;;;;;;;;5110957;28;19919;-63
2020/12/24 14:02:23;;;;;;;;;;;;;;;;;;5133064;28;19950;-64
2020/12/24 14:04:49;;;;;;;;;;;;;;;;;;5113743;28;19947;-62
2020/12/24 14:07:15;;;;;;;;;;;;;;;;;;5130803;28;20014;-63
2020/12/24 14:09:41;;;;;;;;;;;;;;;;;;5130584;28;19923;-63
2020/12/24 14:12:07;;;;;;;;;;;;;;;;;;5131501;28;19907;-63
2020/12/24 14:14:33;;;;;;;;;;;;;;;;;;5130445;28;20415;-63
2020/12/24 14:16:59;;;;;;;;;;;;;;;;;;5130967;28;19907;-62
2020/12/24 14:19:26;;;;;;;;;;;;;;;;;;5131627;28;19915;-63
2020/12/24 14:21:52;;;;;;;;;;;;;;;;;;5132654;28;19908;-63
2020/12/24 14:24:18;;;;;;;;;;;;;;;;;;5114906;28;20359;-64
2020/12/24 14:26:43;;;;;;;;;;;;;;;;;;5135432;27;19960;-63
2020/12/24 14:29:09;;;;;;;;;;;;;;;;;;5118984;27;19908;-63
2020/12/24 14:31:35;;;;;;;;;;;;;;;;;;5136920;27;20279;-63
2020/12/24 14:34:02;;;;;;;;;;;;;;;;;;5136367;27;19908;-63
2020/12/24 14:36:28;;;;;;;;;;;;;;;;;;5135379;27;19908;-64
2020/12/24 14:38:54;;;;;;;;;;;;;;;;;;5135024;27;19908;-63
2020/12/24 14:41:20;;;;;;;;;;;;;;;;;;5135385;27;20302;-64
2020/12/24 14:43:46;;;;;;;;;;;;;;;;;;5135460;27;19915;-64
2020/12/24 14:46:12;;;;;;;;;;;;;;;;;;5134856;27;19907;-64
2020/12/24 14:48:38;;;;;;;;;;;;;;;;;;5134997;27;20381;-64
2020/12/24 14:51:04;;;;;;;;;;;;;;;;;;5135045;27;19922;-64
2020/12/24 14:53:30;;;;;;;;;;;;;;;;;;5136458;27;19912;-63
2020/12/24 14:55:56;;;;;;;;;;;;;;;;;;5118612;27;19915;-64
2020/12/24 14:58:22;;;;;;;;;;;;;;;;;;5136706;27;19907;-62
2020/12/24 15:00:48;;;;;;;;;;;;;;;;;;5137033;27;19954;-63
2020/12/24 15:03:14;;;;;;;;;;;;;;;;;;5137058;27;19911;-63
2020/12/24 15:05:41;;;;;;;;;;;;;;;;;;5136444;27;19916;-63
2020/12/24 15:08:07;;;;;;;;;;;;;;;;;;5136846;27;20283;-64
2020/12/24 15:10:33;;;;;;;;;;;;;;;;;;5136534;27;19915;-63
2020/12/24 15:12:59;;;;;;;;;;;;;;;;;;5136194;27;20377;-63
2020/12/24 15:15:25;;;;;;;;;;;;;;;;;;5136919;27;20416;-63
2020/12/24 15:17:51;;;;;;;;;;;;;;;;;;5136568;27;19911;-63
2020/12/24 15:20:17;;;;;;;;;;;;;;;;;;5136395;27;19955;-64
2020/12/24 15:22:43;;;;;;;;;;;;;;;;;;5118197;27;19915;-63
2020/12/24 15:25:09;;;;;;;;;;;;;;;;;;5136559;27;19907;-64
2020/12/24 15:27:35;;;;;;;;;;;;;;;;;;5136071;27;19907;-63
2020/12/24 15:30:01;;;;;;;;;;;;;;;;;;5136346;27;19934;-64
2020/12/24 15:32:27;;;;;;;;;;;;;;;;;;5136338;27;19958;-63
2020/12/24 15:34:53;;;;;;;;;;;;;;;;;;5135893;27;20358;-64
2020/12/24 15:37:19;;;;;;;;;;;;;;;;;;5136286;27;19907;-64
2020/12/24 15:39:46;;;;;;;;;;;;;;;;;;5135609;27;20386;-64
2020/12/24 15:42:12;;;;;;;;;;;;;;;;;;5117095;27;20034;-61
2020/12/24 15:44:38;;;;;;;;;;;;;;;;;;5136220;27;19949;-64
2020/12/24 15:47:04;;;;;;;;;;;;;;;;;;5136052;27;19952;-62
2020/12/24 15:49:30;;;;;;;;;;;;;;;;;;5135500;27;19924;-62
2020/12/24 15:51:58;;;;;;;;;;;;;;;;;;5136022;27;19998;-63
2020/12/24 15:54:24;;;;;;;;;;;;;;;;;;5135952;27;19911;-62
2020/12/24 15:56:50;;;;;;;;;;;;;;;;;;5135438;27;19911;-62
2020/12/24 15:59:16;;;;;;;;;;;;;;;;;;5135784;27;19914;-61
2020/12/24 16:01:42;;;;;;;;;;;;;;;;;;5117011;27;19915;-64
2020/12/24 16:04:08;;;;;;;;;;;;;;;;;;5136063;27;19976;-62
2020/12/24 16:06:34;;;;;;;;;;;;;;;;;;5135565;27;19952;-63
2020/12/24 16:09:00;;;;;;;;;;;;;;;;;;5135263;27;19912;-64
2020/12/24 16:11:26;;;;;;;;;;;;;;;;;;5135594;27;20412;-64
2020/12/24 16:13:51;;;;;;;;;;;;;;;;;;5135502;27;19960;-64
2020/12/24 16:16:17;;;;;;;;;;;;;;;;;;5135251;27;19914;-64
2020/12/24 16:18:43;;;;;;;;;;;;;;;;;;5135531;27;19953;-64
2020/12/24 16:21:09;;;;;;;;;;;;;;;;;;5135574;27;20000;-64
2020/12/24 16:23:35;;;;;;;;;;;;;;;;;;5116668;27;19908;-63
2020/12/24 16:26:01;;;;;;;;;;;;;;;;;;5116938;27;19907;-64
2020/12/24 16:28:27;;;;;;;;;;;;;;;;;;5135378;27;20359;-63
2020/12/24 16:30:53;;;;;;;;;;;;;;;;;;5134822;27;19916;-63
2020/12/24 16:33:19;;;;;;;;;;;;;;;;;;5116744;27;19908;-64
2020/12/24 16:35:45;;;;;;;;;;;;;;;;;;5135115;27;19907;-63